Time;durP1;ratioP1;P1;durP2;ratioP2;P2;SDS_P1;SDS_P2;PMS_P1;PMS_P2;Temp;Humidity;BMP_temperature;BMP_pressure;BME280_temperature;BME280_humidity;BME280_pressure;Samples;Min_cycle;Max_cycle;Signal;HPM_P1;HPM_P2
2022/09/13 00:01:12;;;;;;;2.13;1.90;;;21.90;54.40;;;;;;4916907;29;20484;-56
2022/09/13 00:03:41;;;;;;;1.77;1.63;;;21.90;54.50;;;;;;4904878;29;20831;-54
2022/09/13 00:06:12;;;;;;;2.30;2.10;;;21.90;54.50;;;;;;4911087;29;20443;-52
2022/09/13 00:08:40;;;;;;;2.37;1.83;;;21.90;54.50;;;;;;4917590;29;20433;-55
2022/09/13 00:11:15;;;;;;;1.67;1.57;;;21.90;54.50;;;;;;4903654;29;20552;-52
2022/09/13 00:13:45;;;;;;;2.53;1.83;;;21.90;54.60;;;;;;4909798;29;20468;-52
2022/09/13 00:16:16;;;;;;;2.73;2.47;;;21.90;54.50;;;;;;4914435;29;20476;-52
2022/09/13 00:18:46;;;;;;;2.13;1.93;;;21.90;54.50;;;;;;4905776;29;20500;-53
2022/09/13 00:21:17;;;;;;;2.10;1.87;;;21.90;54.60;;;;;;4907428;29;20874;-52
2022/09/13 00:23:46;;;;;;;2.00;1.60;;;21.90;54.60;;;;;;4915923;29;20464;-52
2022/09/13 00:26:18;;;;;;;2.33;2.13;;;21.90;54.60;;;;;;4904808;29;20942;-53
2022/09/13 00:28:50;;;;;;;2.57;2.37;;;21.90;54.40;;;;;;4916029;29;20770;-52
2022/09/13 00:31:20;;;;;;;2.13;1.93;;;21.90;54.50;;;;;;4908727;29;20521;-55
2022/09/13 00:33:48;;;;;;;2.10;2.00;;;21.90;54.40;;;;;;4900776;29;20453;-52
2022/09/13 00:36:17;;;;;;;2.10;2.00;;;21.90;54.40;;;;;;4901129;29;20535;-55
2022/09/13 00:38:45;;;;;;;2.00;1.83;;;21.90;54.50;;;;;;4909538;29;20473;-53
2022/09/13 00:41:15;;;;;;;1.90;1.80;;;21.90;54.60;;;;;;4880255;29;20973;-53
2022/09/13 00:43:49;;;;;;;2.27;2.07;;;21.90;54.60;;;;;;4901473;29;20429;-53
2022/09/13 00:46:23;;;;;;;2.10;1.80;;;21.90;54.50;;;;;;4904467;29;20442;-52
2022/09/13 00:48:56;;;;;;;1.73;1.60;;;21.90;54.50;;;;;;4916244;29;20460;-53
2022/09/13 00:51:25;;;;;;;2.20;2.00;;;21.90;54.60;;;;;;4902500;29;20460;-52
2022/09/13 00:53:58;;;;;;;2.20;1.63;;;21.90;54.50;;;;;;4916129;29;20452;-53
2022/09/13 00:56:32;;;;;;;2.00;1.80;;;21.90;54.60;;;;;;4901511;29;20551;-52
2022/09/13 00:59:05;;;;;;;2.53;2.33;;;21.90;54.50;;;;;;4909284;29;20552;-52
2022/09/13 01:01:40;;;;;;;2.17;1.97;;;21.90;54.50;;;;;;4911488;29;20443;-54
2022/09/13 01:04:08;;;;;;;2.37;2.13;;;21.90;54.50;;;;;;4909754;29;20531;-53
2022/09/13 01:06:41;;;;;;;3.63;2.03;;;21.90;54.60;;;;;;4919992;29;20441;-53
2022/09/13 01:09:12;;;;;;;2.10;1.90;;;21.90;54.50;;;;;;4905755;29;20512;-53
2022/09/13 01:11:49;;;;;;;2.40;1.87;;;21.90;54.60;;;;;;4900562;29;20441;-52
2022/09/13 01:14:27;;;;;;;2.27;1.77;;;21.90;54.50;;;;;;4920270;29;20475;-51
2022/09/13 01:17:10;;;;;;;3.23;1.77;;;21.90;54.70;;;;;;4916610;29;20469;-54
2022/09/13 01:19:47;;;;;;;1.87;1.77;;;21.90;54.60;;;;;;4877827;29;20742;-52
2022/09/13 01:22:59;;;;;;;2.23;2.03;;;21.90;54.50;;;;;;4906466;29;20450;-52
2022/09/13 01:25:58;;;;;;;2.30;2.10;;;21.90;54.60;;;;;;4873805;29;20490;-52
2022/09/13 01:28:54;;;;;;;2.40;1.70;;;21.90;54.50;;;;;;4908696;29;20453;-53
2022/09/13 01:31:31;;;;;;;2.00;1.90;;;21.90;54.70;;;;;;4908698;29;20448;-53
2022/09/13 01:34:14;;;;;;;2.63;2.10;;;21.90;54.70;;;;;;4906792;29;20515;-54
2022/09/13 01:36:59;;;;;;;1.87;1.77;;;21.90;54.60;;;;;;4908440;29;20477;-53
2022/09/13 01:39:38;;;;;;;2.30;2.20;;;21.90;54.70;;;;;;4905694;29;20511;-53
2022/09/13 01:42:16;;;;;;;1.90;1.80;;;21.90;54.60;;;;;;4893513;29;20996;-52
2022/09/13 01:44:59;;;;;;;1.73;1.63;;;21.90;54.70;;;;;;4907058;29;20917;-52
2022/09/13 01:47:43;;;;;;;1.90;1.80;;;21.90;54.60;;;;;;4916501;29;20448;-56
2022/09/13 01:50:20;;;;;;;2.37;2.17;;;21.90;54.60;;;;;;4906413;29;20476;-52
2022/09/13 01:52:53;;;;;;;1.80;1.70;;;21.90;54.70;;;;;;4913115;29;20453;-53
2022/09/13 01:55:30;;;;;;;1.83;1.73;;;21.90;54.80;;;;;;4900322;29;20511;-55
2022/09/13 01:58:08;;;;;;;1.70;1.60;;;21.90;54.70;;;;;;4908890;29;20456;-53
2022/09/13 02:00:41;;;;;;;2.10;1.93;;;21.90;54.70;;;;;;4908980;29;20488;-54
2022/09/13 02:03:17;;;;;;;1.60;1.50;;;21.90;54.60;;;;;;4906425;29;20440;-52
2022/09/13 02:05:51;;;;;;;2.13;2.03;;;21.90;54.70;;;;;;4909892;29;20482;-52
2022/09/13 02:08:25;;;;;;;4.50;2.60;;;21.90;54.80;;;;;;4914021;29;20435;-52
2022/09/13 02:10:58;;;;;;;1.73;1.63;;;21.90;54.70;;;;;;4909953;29;20443;-52
2022/09/13 02:13:31;;;;;;;2.37;2.10;;;21.90;54.80;;;;;;4903562;29;20937;-54
2022/09/13 02:16:04;;;;;;;1.83;1.73;;;21.90;54.70;;;;;;4912148;29;20967;-53
2022/09/13 02:18:38;;;;;;;2.10;1.90;;;21.90;54.70;;;;;;4906822;29;20555;-55
2022/09/13 02:21:12;;;;;;;2.10;1.80;;;21.80;54.60;;;;;;4906378;29;20433;-55
2022/09/13 02:23:47;;;;;;;2.03;1.90;;;21.90;54.70;;;;;;4903963;29;20516;-52
2022/09/13 02:26:16;;;;;;;2.00;1.90;;;21.90;54.70;;;;;;4901715;29;21084;-52
2022/09/13 02:28:51;;;;;;;2.00;1.70;;;21.90;54.80;;;;;;4903435;29;20491;-55
2022/09/13 02:31:26;;;;;;;1.83;1.73;;;21.90;54.80;;;;;;4901100;29;20484;-52
2022/09/13 02:33:59;;;;;;;1.90;1.70;;;21.90;54.70;;;;;;4902516;29;20485;-54
2022/09/13 02:36:30;;;;;;;2.20;2.10;;;21.80;54.00;;;;;;4902793;29;20492;-54
2022/09/13 02:39:02;;;;;;;2.10;1.90;;;21.80;54.70;;;;;;4885783;29;20471;-54
2022/09/13 02:41:37;;;;;;;1.80;1.47;;;21.90;54.80;;;;;;4903449;29;20456;-53
2022/09/13 02:44:10;;;;;;;1.80;1.70;;;21.80;54.70;;;;;;4917394;29;21043;-53
2022/09/13 02:46:57;;;;;;;1.70;1.60;;;21.80;54.70;;;;;;4909590;29;20429;-54
2022/09/13 02:49:31;;;;;;;1.57;1.47;;;21.80;54.70;;;;;;4908097;29;20485;-53
2022/09/13 02:52:09;;;;;;;2.33;1.93;;;21.90;54.70;;;;;;4897748;29;20971;-52
2022/09/13 02:54:44;;;;;;;2.20;2.00;;;21.90;54.80;;;;;;4911757;29;20491;-52
2022/09/13 02:57:17;;;;;;;1.83;1.43;;;21.80;54.80;;;;;;4910267;29;20503;-52
2022/09/13 02:59:46;;;;;;;1.73;1.60;;;21.90;54.80;;;;;;4912973;29;20473;-54
2022/09/13 03:02:19;;;;;;;1.70;1.60;;;21.90;54.80;;;;;;4915744;29;20452;-52
2022/09/13 03:04:51;;;;;;;2.13;1.63;;;21.90;54.80;;;;;;4892636;29;20484;-53
2022/09/13 03:07:19;;;;;;;2.00;1.80;;;21.90;54.80;;;;;;4902269;29;20825;-55
2022/09/13 03:09:52;;;;;;;1.80;1.70;;;21.90;54.80;;;;;;4910585;29;20507;-53
2022/09/13 03:12:37;;;;;;;1.70;1.60;;;21.90;54.80;;;;;;4912484;29;20476;-53
2022/09/13 03:15:15;;;;;;;2.03;1.93;;;21.80;54.80;;;;;;4914299;29;20507;-55
2022/09/13 03:17:54;;;;;;;2.10;1.90;;;21.90;54.70;;;;;;4907934;29;20519;-53
2022/09/13 03:20:36;;;;;;;1.97;1.80;;;21.80;54.70;;;;;;4926356;29;20522;-53
2022/09/13 03:23:18;;;;;;;3.53;2.33;;;21.80;54.70;;;;;;4894699;29;20928;-53
2022/09/13 03:26:16;;;;;;;1.90;1.80;;;21.80;54.70;;;;;;4898480;29;20469;-53
2022/09/13 03:28:55;;;;;;;3.20;2.20;;;21.80;54.70;;;;;;4929948;29;20438;-52
2022/09/13 03:31:31;;;;;;;2.37;1.80;;;21.80;54.70;;;;;;4917518;29;20448;-52
2022/09/13 03:34:08;;;;;;;2.07;1.97;;;21.80;54.70;;;;;;4915429;29;20480;-53
2022/09/13 03:36:43;;;;;;;1.90;1.80;;;21.80;54.70;;;;;;4883424;29;20456;-52
2022/09/13 03:39:19;;;;;;;3.70;2.03;;;21.80;54.70;;;;;;4915624;29;20475;-55
2022/09/13 03:41:54;;;;;;;2.00;1.80;;;21.80;54.60;;;;;;4912491;29;21026;-54
2022/09/13 03:44:24;;;;;;;1.80;1.70;;;21.80;54.70;;;;;;4902890;29;20541;-52
2022/09/13 03:46:56;;;;;;;3.93;1.80;;;21.80;54.80;;;;;;4912723;29;20999;-53
2022/09/13 03:49:27;;;;;;;2.50;2.30;;;21.80;54.70;;;;;;4906825;29;20457;-53
2022/09/13 03:51:57;;;;;;;1.53;1.43;;;21.80;54.50;;;;;;4933818;29;20451;-52
2022/09/13 03:54:30;;;;;;;2.00;1.67;;;21.80;54.70;;;;;;4909906;29;20575;-52
2022/09/13 03:57:10;;;;;;;1.97;1.87;;;21.80;54.70;;;;;;4902670;29;20449;-54
2022/09/13 03:59:41;;;;;;;1.70;1.60;;;21.80;54.70;;;;;;4908414;29;20472;-53
2022/09/13 04:02:11;;;;;;;1.70;1.60;;;21.80;54.80;;;;;;4909340;29;20480;-53
2022/09/13 04:04:40;;;;;;;1.80;1.70;;;21.80;54.80;;;;;;4915334;29;20468;-52
2022/09/13 04:07:12;;;;;;;1.80;1.70;;;21.80;54.80;;;;;;4916778;29;20915;-52
2022/09/13 04:09:40;;;;;;;1.83;1.73;;;21.80;54.80;;;;;;4911964;29;20477;-55
2022/09/13 04:12:09;;;;;;;1.83;1.73;;;21.80;54.70;;;;;;4905774;29;20452;-52
2022/09/13 04:14:38;;;;;;;3.47;1.40;;;21.80;54.80;;;;;;4912870;29;20472;-53
2022/09/13 04:17:06;;;;;;;2.60;1.80;;;21.80;54.80;;;;;;4912800;29;20487;-55
2022/09/13 04:19:35;;;;;;;2.57;1.93;;;21.80;54.80;;;;;;4908721;29;20500;-53
2022/09/13 04:22:04;;;;;;;3.20;2.30;;;21.80;54.80;;;;;;4918443;29;20527;-52
2022/09/13 04:24:35;;;;;;;2.53;1.87;;;21.80;54.80;;;;;;4900804;29;20481;-55
2022/09/13 04:27:04;;;;;;;1.60;1.50;;;21.80;54.90;;;;;;4908765;29;20868;-53
2022/09/13 04:29:33;;;;;;;1.70;1.60;;;21.80;54.90;;;;;;4916986;29;20948;-52
2022/09/13 04:32:01;;;;;;;2.37;1.63;;;21.80;54.90;;;;;;4907322;29;20445;-53
2022/09/13 04:34:30;;;;;;;2.00;1.80;;;21.80;54.80;;;;;;4906619;29;20926;-52
2022/09/13 04:36:58;;;;;;;1.93;1.83;;;21.80;54.90;;;;;;4905429;29;20445;-52
2022/09/13 04:39:27;;;;;;;2.63;1.77;;;21.80;54.90;;;;;;4901488;29;20507;-52
2022/09/13 04:41:57;;;;;;;2.87;1.87;;;21.80;54.80;;;;;;4898798;29;20441;-53
2022/09/13 04:44:26;;;;;;;1.50;1.37;;;21.80;54.80;;;;;;4899604;29;20488;-54
2022/09/13 04:46:54;;;;;;;1.53;1.43;;;21.80;54.90;;;;;;4913573;29;20445;-51
2022/09/13 04:49:23;;;;;;;1.50;1.40;;;21.80;55.00;;;;;;4909177;29;20561;-52
2022/09/13 04:51:51;;;;;;;2.30;1.87;;;21.70;54.80;;;;;;4917319;29;20947;-53
2022/09/13 04:54:20;;;;;;;1.80;1.70;;;21.80;55.00;;;;;;4915601;29;20544;-52
2022/09/13 04:56:49;;;;;;;1.70;1.57;;;21.70;54.90;;;;;;4901786;29;20449;-51
2022/09/13 04:59:19;;;;;;;1.87;1.70;;;21.80;55.00;;;;;;4909821;29;21023;-53
2022/09/13 05:01:47;;;;;;;2.53;1.90;;;21.80;55.00;;;;;;4911839;29;20477;-53
2022/09/13 05:04:16;;;;;;;2.00;1.80;;;21.70;55.00;;;;;;4914392;29;20484;-53
2022/09/13 05:06:46;;;;;;;2.07;1.90;;;21.80;55.00;;;;;;4910333;29;20783;-53
2022/09/13 05:09:15;;;;;;;2.10;1.90;;;21.70;54.90;;;;;;4912800;29;20480;-51
2022/09/13 05:11:44;;;;;;;2.10;1.90;;;21.80;55.00;;;;;;4907358;29;20464;-52
2022/09/13 05:14:12;;;;;;;2.33;1.93;;;21.70;55.00;;;;;;4920059;29;20935;-52
2022/09/13 05:16:42;;;;;;;4.33;1.70;;;21.70;55.00;;;;;;4915097;29;20436;-51
2022/09/13 05:19:12;;;;;;;3.53;1.30;;;21.80;55.00;;;;;;4899701;29;20511;-50
2022/09/13 05:21:40;;;;;;;1.80;1.67;;;21.70;54.90;;;;;;4912380;29;20447;-51
2022/09/13 05:24:09;;;;;;;2.57;2.37;;;21.70;55.00;;;;;;4905658;29;20492;-52
2022/09/13 05:26:37;;;;;;;1.80;1.70;;;21.70;54.90;;;;;;4911020;29;20839;-51
2022/09/13 05:29:06;;;;;;;2.13;1.90;;;21.70;55.00;;;;;;4907481;29;20954;-53
2022/09/13 05:31:36;;;;;;;1.30;1.20;;;21.70;54.90;;;;;;4913921;29;20436;-52
2022/09/13 05:34:09;;;;;;;1.50;1.40;;;21.70;54.90;;;;;;4910601;29;20490;-55
2022/09/13 05:36:37;;;;;;;3.30;1.40;;;21.70;54.90;;;;;;4905405;29;20465;-53
2022/09/13 05:39:07;;;;;;;1.57;1.47;;;21.70;54.90;;;;;;4899317;29;21061;-54
2022/09/13 05:41:56;;;;;;;2.40;2.10;;;21.70;55.00;;;;;;4889211;29;20533;-50
2022/09/13 05:44:24;;;;;;;1.90;1.80;;;21.70;54.90;;;;;;4926231;29;20511;-52
2022/09/13 05:46:52;;;;;;;2.33;1.73;;;21.70;54.90;;;;;;4913241;29;20476;-51
2022/09/13 05:49:22;;;;;;;1.93;1.40;;;21.70;54.90;;;;;;4919856;29;20505;-52
2022/09/13 05:51:51;;;;;;;2.13;1.50;;;21.70;55.00;;;;;;4910285;29;20543;-52
2022/09/13 05:54:19;;;;;;;1.97;1.60;;;21.70;55.00;;;;;;4891883;29;21017;-51
2022/09/13 05:56:47;;;;;;;2.00;1.60;;;21.70;55.00;;;;;;4908355;29;20440;-51
2022/09/13 05:59:15;;;;;;;1.87;1.77;;;21.70;55.00;;;;;;4916583;29;20488;-51
2022/09/13 06:01:44;;;;;;;2.37;2.10;;;21.70;55.00;;;;;;4912600;29;20472;-51
2022/09/13 06:04:13;;;;;;;1.57;1.47;;;21.70;55.00;;;;;;4907870;29;20553;-53
2022/09/13 06:06:43;;;;;;;1.97;1.87;;;21.70;56.40;;;;;;4916983;29;20891;-52
2022/09/13 06:09:11;;;;;;;2.00;1.47;;;21.70;55.10;;;;;;4910885;29;20487;-51
2022/09/13 06:11:40;;;;;;;1.60;1.50;;;21.70;55.10;;;;;;4904749;29;20507;-54
2022/09/13 06:14:10;;;;;;;1.50;1.40;;;21.70;55.10;;;;;;4918071;29;20552;-51
2022/09/13 06:16:38;;;;;;;1.67;1.53;;;21.70;55.10;;;;;;4903164;29;20967;-51
2022/09/13 06:19:07;;;;;;;1.90;1.60;;;21.70;55.10;;;;;;4894603;29;20453;-54
2022/09/13 06:21:35;;;;;;;2.13;1.50;;;21.70;55.20;;;;;;4910561;29;21010;-51
2022/09/13 06:24:06;;;;;;;1.93;1.80;;;21.70;55.10;;;;;;4910422;29;20520;-51
2022/09/13 06:26:34;;;;;;;3.00;2.70;;;21.70;55.40;;;;;;4894190;29;20449;-53
2022/09/13 06:29:03;;;;;;;1.30;1.20;;;21.70;55.40;;;;;;4924147;29;20438;-52
2022/09/13 06:31:31;;;;;;;2.30;1.50;;;21.70;55.30;;;;;;4896621;29;20548;-53
2022/09/13 06:34:02;;;;;;;1.83;1.73;;;21.70;55.20;;;;;;4902566;29;20493;-53
2022/09/13 06:36:31;;;;;;;2.00;1.90;;;21.60;55.10;;;;;;4911413;29;20459;-50
2022/09/13 06:39:00;;;;;;;1.57;1.47;;;21.60;55.10;;;;;;4912314;29;20444;-52
2022/09/13 06:41:30;;;;;;;2.30;1.77;;;21.70;56.40;;;;;;4908291;29;20629;-51
2022/09/13 06:44:00;;;;;;;2.00;1.80;;;21.70;55.10;;;;;;4907367;29;20466;-52
2022/09/13 06:46:31;;;;;;;2.07;1.87;;;21.70;55.30;;;;;;4911545;29;20532;-51
2022/09/13 06:49:00;;;;;;;1.50;1.40;;;21.70;55.30;;;;;;4900403;29;20453;-56
2022/09/13 06:51:29;;;;;;;1.70;1.60;;;21.70;55.30;;;;;;4918023;29;20442;-52
2022/09/13 06:53:59;;;;;;;2.03;1.93;;;21.70;56.40;;;;;;4901294;29;20449;-53
2022/09/13 06:56:29;;;;;;;1.90;1.80;;;21.70;55.40;;;;;;4919623;29;20549;-51
2022/09/13 06:59:01;;;;;;;2.27;2.07;;;21.60;55.40;;;;;;4899474;29;20478;-54
2022/09/13 07:01:32;;;;;;;2.13;2.03;;;21.60;55.40;;;;;;4926589;29;20832;-52
2022/09/13 07:04:02;;;;;;;3.83;2.43;;;21.60;55.50;;;;;;4914932;29;20483;-52
2022/09/13 07:06:33;;;;;;;1.90;1.73;;;21.70;55.90;;;;;;4898718;29;20452;-51
2022/09/13 07:09:03;;;;;;;2.00;1.80;;;21.70;55.80;;;;;;4900996;29;20528;-51
2022/09/13 07:11:34;;;;;;;2.10;1.70;;;21.60;55.50;;;;;;4898277;29;20453;-52
2022/09/13 07:14:05;;;;;;;2.40;2.13;;;21.60;55.50;;;;;;4919754;29;20453;-51
2022/09/13 07:16:36;;;;;;;1.90;1.70;;;21.60;55.50;;;;;;4904732;29;20524;-53
2022/09/13 07:19:06;;;;;;;3.03;1.90;;;21.60;55.40;;;;;;4901905;29;20459;-52
2022/09/13 07:21:35;;;;;;;2.30;1.80;;;21.60;55.60;;;;;;4905624;29;20307;-51
2022/09/13 07:24:04;;;;;;;3.90;2.20;;;21.60;55.60;;;;;;4923566;29;20527;-53
2022/09/13 07:26:33;;;;;;;2.30;2.00;;;21.60;55.90;;;;;;4898818;29;20487;-51
2022/09/13 07:29:05;;;;;;;3.03;1.90;;;21.60;55.90;;;;;;4903470;29;20441;-50
2022/09/13 07:31:36;;;;;;;4.70;1.83;;;21.60;56.00;;;;;;4904296;29;20480;-51
2022/09/13 07:34:07;;;;;;;2.90;2.00;;;21.60;56.10;;;;;;4914759;29;20472;-54
2022/09/13 07:36:36;;;;;;;2.13;1.57;;;21.60;56.00;;;;;;4904600;29;20437;-50
2022/09/13 07:39:05;;;;;;;2.00;1.90;;;21.60;56.20;;;;;;4917239;29;20484;-52
2022/09/13 07:41:37;;;;;;;4.50;1.80;;;21.60;56.00;;;;;;4909677;29;20833;-52
2022/09/13 07:44:09;;;;;;;4.57;1.97;;;21.60;55.90;;;;;;4911071;29;20512;-51
2022/09/13 07:46:42;;;;;;;2.43;2.23;;;21.60;56.00;;;;;;4898285;29;20446;-53
2022/09/13 07:49:11;;;;;;;3.27;1.83;;;21.60;55.90;;;;;;4887231;29;20907;-52
2022/09/13 07:51:42;;;;;;;2.53;2.17;;;21.60;58.00;;;;;;4912239;29;21048;-50
2022/09/13 07:54:15;;;;;;;2.60;2.40;;;21.60;57.80;;;;;;4899143;29;20477;-54
2022/09/13 07:56:48;;;;;;;6.43;2.20;;;21.60;59.10;;;;;;4904203;29;20501;-53
2022/09/13 07:59:19;;;;;;;3.50;2.30;;;21.60;59.60;;;;;;4910516;29;20456;-53
2022/09/13 08:01:49;;;;;;;5.70;2.57;;;21.60;59.90;;;;;;4915552;29;20984;-53
2022/09/13 08:04:20;;;;;;;7.03;2.40;;;21.60;61.50;;;;;;4901453;29;20510;-53
2022/09/13 08:06:48;;;;;;;3.00;2.30;;;21.60;61.60;;;;;;4902787;29;20297;-55
2022/09/13 08:09:17;;;;;;;9.57;3.10;;;21.60;60.70;;;;;;4914167;29;20456;-54
2022/09/13 08:11:48;;;;;;;5.80;2.47;;;21.60;60.20;;;;;;4904224;29;20538;-54
2022/09/13 08:14:19;;;;;;;3.70;2.40;;;21.60;59.60;;;;;;4914890;29;21003;-55
2022/09/13 08:16:48;;;;;;;4.27;2.10;;;21.60;59.20;;;;;;4913345;29;20496;-54
2022/09/13 08:19:41;;;;;;;3.37;1.70;;;21.70;59.00;;;;;;4902111;29;20489;-55
2022/09/13 08:22:09;;;;;;;4.77;1.70;;;21.60;58.50;;;;;;4911135;29;20477;-55
2022/09/13 08:24:37;;;;;;;4.90;2.73;;;21.60;58.50;;;;;;4906150;29;20475;-56
2022/09/13 08:27:06;;;;;;;3.27;1.90;;;21.60;58.60;;;;;;4901358;29;20449;-55
2022/09/13 08:29:36;;;;;;;3.70;2.13;;;21.70;58.60;;;;;;4920821;29;20888;-55
2022/09/13 08:32:04;;;;;;;2.57;2.10;;;21.70;58.60;;;;;;4901601;29;20532;-53
2022/09/13 08:34:32;;;;;;;3.93;2.10;;;21.70;58.30;;;;;;4900051;29;20973;-54
2022/09/13 08:37:01;;;;;;;3.07;1.97;;;21.70;58.10;;;;;;4914622;29;20446;-55
2022/09/13 08:39:29;;;;;;;5.00;2.10;;;21.70;58.00;;;;;;4899650;29;20568;-55
2022/09/13 08:42:19;;;;;;;4.50;1.87;;;21.70;57.90;;;;;;4907792;29;20480;-55
2022/09/13 08:44:52;;;;;;;2.30;1.67;;;21.70;57.80;;;;;;4898468;29;20492;-55
2022/09/13 08:47:31;;;;;;;5.90;2.47;;;21.70;58.00;;;;;;4905303;29;20454;-55
2022/09/13 08:50:06;;;;;;;7.00;2.73;;;21.70;57.90;;;;;;4911187;29;20902;-57
2022/09/13 08:52:45;;;;;;;4.63;2.30;;;21.70;58.70;;;;;;4903773;29;20445;-55
2022/09/13 08:55:28;;;;;;;4.27;2.40;;;21.70;58.90;;;;;;4912240;29;20559;-56
2022/09/13 08:58:05;;;;;;;3.27;2.00;;;21.70;58.80;;;;;;4917159;29;20468;-55
2022/09/13 09:00:38;;;;;;;3.93;2.37;;;21.70;58.50;;;;;;4894941;29;20899;-56
2022/09/13 09:03:22;;;;;;;2.20;1.80;;;21.70;58.30;;;;;;4909977;29;20854;-55
2022/09/13 09:05:51;;;;;;;4.40;1.90;;;21.70;58.10;;;;;;4898403;29;20560;-55
2022/09/13 09:08:31;;;;;;;3.10;1.87;;;21.70;58.10;;;;;;4900726;29;20438;-56
2022/09/13 09:11:03;;;;;;;5.77;2.00;;;21.70;57.90;;;;;;4909210;29;20905;-56
2022/09/13 09:13:35;;;;;;;2.73;2.23;;;21.70;58.00;;;;;;4934691;29;20695;-56
2022/09/13 09:16:11;;;;;;;3.90;2.10;;;21.70;57.90;;;;;;4934670;29;20448;-54
2022/09/13 09:18:43;;;;;;;2.40;1.93;;;21.70;57.70;;;;;;4909901;29;20503;-54
2022/09/13 09:21:17;;;;;;;2.83;2.00;;;21.70;57.60;;;;;;4929604;29;21234;-54
2022/09/13 09:23:51;;;;;;;1.93;1.67;;;21.70;57.70;;;;;;4903679;29;20461;-54
2022/09/13 09:26:21;;;;;;;2.10;1.90;;;21.70;57.50;;;;;;4923739;29;20508;-55
2022/09/13 09:28:54;;;;;;;2.60;1.90;;;21.70;57.40;;;;;;4917534;29;20896;-56
2022/09/13 09:31:35;;;;;;;2.87;2.30;;;21.70;57.40;;;;;;4934718;29;20456;-55
2022/09/13 09:34:14;;;;;;;3.00;1.80;;;21.70;57.30;;;;;;4903711;29;20470;-55
2022/09/13 09:36:46;;;;;;;2.20;1.63;;;21.70;57.30;;;;;;4911188;29;20440;-54
2022/09/13 09:39:15;;;;;;;2.87;1.73;;;21.70;57.30;;;;;;4907461;29;20562;-56
2022/09/13 09:41:44;;;;;;;1.80;1.70;;;21.70;57.20;;;;;;4902406;29;20828;-54
2022/09/13 09:44:20;;;;;;;2.93;1.63;;;21.70;57.20;;;;;;4893465;29;20806;-55
2022/09/13 09:46:56;;;;;;;2.23;1.77;;;21.70;57.20;;;;;;4911967;29;20429;-55
2022/09/13 09:52:29;;;;;;;3.73;1.47;;;21.70;57.10;;;;;;4892740;29;21023;-54
2022/09/13 09:55:14;;;;;;;1.90;1.60;;;21.80;57.20;;;;;;4916096;29;21002;-56
2022/09/13 09:57:54;;;;;;;2.07;1.43;;;21.80;57.10;;;;;;4910939;29;21051;-55
2022/09/13 10:00:24;;;;;;;2.33;1.77;;;21.70;57.00;;;;;;4923094;29;20476;-53
2022/09/13 10:02:58;;;;;;;1.77;1.60;;;21.70;57.10;;;;;;4912340;29;20469;-56
2022/09/13 10:05:27;;;;;;;6.70;1.90;;;21.70;57.00;;;;;;4896942;29;20838;-54
2022/09/13 10:07:58;;;;;;;1.70;1.60;;;21.80;57.20;;;;;;4904660;29;20437;-54
2022/09/13 10:10:34;;;;;;;2.00;1.80;;;21.80;57.10;;;;;;4919432;29;20502;-56
2022/09/13 10:13:05;;;;;;;2.00;1.53;;;21.80;57.10;;;;;;4902142;29;20505;-58
2022/09/13 10:15:34;;;;;;;1.50;1.40;;;21.70;57.00;;;;;;4903713;29;20571;-53
2022/09/13 10:18:16;;;;;;;1.60;1.43;;;21.70;57.00;;;;;;4909427;29;20841;-54
2022/09/13 10:21:06;;;;;;;2.00;1.80;;;21.80;57.00;;;;;;4903807;29;20461;-54
2022/09/13 10:23:36;;;;;;;2.13;1.73;;;21.70;57.00;;;;;;4900952;29;20445;-56
2022/09/13 10:26:09;;;;;;;2.03;1.87;;;21.80;57.00;;;;;;4907423;29;20528;-54
2022/09/13 10:28:45;;;;;;;1.90;1.57;;;21.70;56.90;;;;;;4919038;29;20460;-55
2022/09/13 10:31:15;;;;;;;1.40;1.30;;;21.70;57.00;;;;;;4901134;29;20443;-56
2022/09/13 10:33:57;;;;;;;3.10;1.80;;;21.70;57.00;;;;;;4915703;29;20849;-54
2022/09/13 10:36:29;;;;;;;2.17;1.50;;;21.70;57.00;;;;;;4882304;29;20885;-56
2022/09/13 10:39:20;;;;;;;2.87;1.63;;;21.70;56.90;;;;;;4897829;29;20438;-57
2022/09/13 10:41:52;;;;;;;2.97;1.87;;;21.70;56.90;;;;;;4897483;29;20469;-54
2022/09/13 10:44:26;;;;;;;2.00;1.30;;;21.70;56.90;;;;;;4906322;29;20473;-54
2022/09/13 10:46:56;;;;;;;1.60;1.50;;;21.80;57.00;;;;;;4908633;29;20535;-54
2022/09/13 10:49:44;;;;;;;1.93;1.70;;;21.70;56.90;;;;;;4915680;29;20446;-55
2022/09/13 10:52:27;;;;;;;1.60;1.50;;;21.80;56.90;;;;;;4900929;29;20469;-55
2022/09/13 10:54:55;;;;;;;1.63;1.27;;;21.80;57.00;;;;;;4915463;29;20583;-56
2022/09/13 10:57:34;;;;;;;1.80;1.40;;;21.70;56.90;;;;;;4907303;29;20535;-57
2022/09/13 11:00:06;;;;;;;2.03;1.83;;;21.80;57.00;;;;;;4892699;29;20477;-56
2022/09/13 11:03:10;;;;;;;1.67;1.50;;;21.70;56.90;;;;;;4909952;29;20467;-56
2022/09/13 11:05:45;;;;;;;1.50;1.40;;;21.80;57.00;;;;;;4898525;29;20567;-55
2022/09/13 11:08:30;;;;;;;3.13;1.53;;;21.70;56.70;;;;;;4912394;29;20812;-55
2022/09/13 11:11:09;;;;;;;1.70;1.60;;;21.80;56.80;;;;;;4911946;29;20500;-54
2022/09/13 11:13:51;;;;;;;1.90;1.60;;;21.80;56.80;;;;;;4922127;29;20910;-53
2022/09/13 11:16:34;;;;;;;1.97;1.57;;;21.80;56.90;;;;;;4903991;29;20492;-56
2022/09/13 11:19:17;;;;;;;3.33;1.43;;;21.70;56.80;;;;;;4907541;29;20472;-56
2022/09/13 11:22:03;;;;;;;1.70;1.60;;;21.70;56.80;;;;;;4917639;29;20448;-54
2022/09/13 11:24:47;;;;;;;1.63;1.53;;;21.80;56.90;;;;;;4903544;29;20519;-56
2022/09/13 11:27:22;;;;;;;1.87;1.77;;;21.80;56.90;;;;;;4909923;29;20518;-54
2022/09/13 11:30:04;;;;;;;1.90;1.80;;;21.80;56.80;;;;;;4913840;29;20467;-57
2022/09/13 11:32:49;;;;;;;4.37;1.67;;;21.80;56.90;;;;;;4916066;29;20437;-56
2022/09/13 11:35:31;;;;;;;1.63;1.27;;;21.80;56.80;;;;;;4914624;29;20534;-55
2022/09/13 11:38:13;;;;;;;1.60;1.50;;;21.80;56.80;;;;;;4901096;29;20511;-53
2022/09/13 11:40:51;;;;;;;1.60;1.50;;;21.80;56.80;;;;;;4891196;29;20501;-54
2022/09/13 11:43:48;;;;;;;2.27;1.70;;;21.80;56.80;;;;;;4918575;29;20566;-54
2022/09/13 11:46:30;;;;;;;1.60;1.50;;;21.80;56.80;;;;;;4903778;29;20463;-54
2022/09/13 11:49:23;;;;;;;2.63;1.50;;;21.80;56.70;;;;;;4925150;29;20514;-57
2022/09/13 11:52:03;;;;;;;2.23;1.80;;;21.80;56.70;;;;;;4887402;29;20452;-54
2022/09/13 11:54:49;;;;;;;1.90;1.70;;;21.80;56.70;;;;;;4910258;29;20903;-55
2022/09/13 11:57:26;;;;;;;1.93;1.10;;;21.80;56.70;;;;;;4894037;29;20464;-56
2022/09/13 11:59:58;;;;;;;1.73;1.63;;;21.80;56.70;;;;;;4906199;29;20478;-57
2022/09/13 12:02:32;;;;;;;2.20;1.50;;;21.80;56.70;;;;;;4916668;29;20465;-55
2022/09/13 12:05:09;;;;;;;1.40;1.30;;;21.80;56.70;;;;;;4899436;29;20485;-55
2022/09/13 12:07:55;;;;;;;3.03;1.87;;;21.80;56.60;;;;;;4907542;29;20433;-53
2022/09/13 12:10:34;;;;;;;3.03;2.37;;;21.90;57.60;;;;;;4912541;29;20477;-55
2022/09/13 12:13:12;;;;;;;2.20;1.83;;;21.90;58.30;;;;;;4918468;29;20464;-54
2022/09/13 12:15:44;;;;;;;3.33;2.00;;;22.00;57.90;;;;;;4930064;29;20528;-54
2022/09/13 12:18:17;;;;;;;3.83;2.47;;;22.00;57.70;;;;;;4899393;29;20458;-55
2022/09/13 12:20:50;;;;;;;1.70;1.60;;;22.00;57.60;;;;;;4912381;29;20496;-55
2022/09/13 12:23:24;;;;;;;2.00;1.70;;;22.00;57.30;;;;;;4917682;29;20980;-56
2022/09/13 12:25:58;;;;;;;2.63;2.13;;;22.00;57.30;;;;;;4900525;29;20532;-56
2022/09/13 12:28:30;;;;;;;4.33;2.47;;;22.00;57.20;;;;;;4895903;29;20540;-56
2022/09/13 12:31:04;;;;;;;7.03;1.93;;;22.00;57.60;;;;;;4920595;29;20559;-54
2022/09/13 12:33:33;;;;;;;2.43;1.80;;;22.00;57.20;;;;;;4887546;29;20457;-54
2022/09/13 12:36:40;;;;;;;2.60;1.90;;;22.00;57.20;;;;;;4915526;29;20548;-54
2022/09/13 12:39:54;;;;;;;2.37;1.87;;;22.00;57.00;;;;;;4903288;29;20450;-54
2022/09/13 12:42:51;;;;;;;2.07;1.97;;;22.00;57.10;;;;;;4891283;29;20464;-56
2022/09/13 12:45:33;;;;;;;1.60;1.50;;;21.90;57.10;;;;;;4907621;29;20844;-55
2022/09/13 12:48:43;;;;;;;2.30;1.70;;;21.90;57.00;;;;;;4923540;29;20445;-56
2022/09/13 12:51:22;;;;;;;2.50;2.30;;;22.00;57.10;;;;;;4890098;29;20513;-56
2022/09/13 12:54:27;;;;;;;2.10;1.70;;;21.90;57.00;;;;;;4903267;29;20537;-56
2022/09/13 12:57:07;;;;;;;1.90;1.70;;;22.00;57.00;;;;;;4904725;29;20819;-53
2022/09/13 13:00:01;;;;;;;1.90;1.80;;;21.90;57.00;;;;;;4912539;29;20844;-54
2022/09/13 13:02:34;;;;;;;2.17;1.67;;;22.00;57.00;;;;;;4894746;29;20453;-55
2022/09/13 13:05:05;;;;;;;2.30;1.40;;;21.90;57.00;;;;;;4887451;29;20489;-53
2022/09/13 13:07:37;;;;;;;1.60;1.50;;;22.00;57.00;;;;;;4894139;29;20966;-54
2022/09/13 13:10:07;;;;;;;2.60;1.90;;;22.00;57.00;;;;;;4893073;29;20486;-52
2022/09/13 13:12:37;;;;;;;2.07;1.97;;;22.00;57.00;;;;;;4902726;29;20509;-54
2022/09/13 13:15:46;;;;;;;4.00;1.60;;;22.00;57.00;;;;;;4895715;29;20565;-54
2022/09/13 13:18:22;;;;;;;1.80;1.50;;;22.00;57.00;;;;;;4904030;29;20524;-53
2022/09/13 13:21:27;;;;;;;2.23;1.70;;;22.00;57.00;;;;;;4904798;29;20539;-54
2022/09/13 13:24:45;;;;;;;2.40;2.20;;;22.00;57.00;;;;;;4904336;29;20539;-54
2022/09/13 13:27:44;;;;;;;1.90;1.70;;;22.00;57.00;;;;;;4866169;29;20477;-54
2022/09/13 13:30:51;;;;;;;1.80;1.40;;;22.00;56.90;;;;;;4846125;29;20486;-54